createdAt,value
2023-04-21T00:01:59.306Z,100724.97
2023-04-21T00:04:26.751Z,100717.00
2023-04-21T00:06:54.616Z,100717.75
2023-04-21T00:09:22.381Z,100713.84
2023-04-21T00:11:49.372Z,100721.78
2023-04-21T00:14:16.355Z,100718.63
2023-04-21T00:16:43.335Z,100710.88
2023-04-21T00:19:10.586Z,100701.56
2023-04-21T00:21:37.717Z,100709.13
2023-04-21T00:24:05.462Z,100707.81
2023-04-21T00:26:32.452Z,100709.44
2023-04-21T00:28:59.438Z,100707.81
2023-04-21T00:31:26.483Z,100704.78
2023-04-21T00:33:54.043Z,100712.03
2023-04-21T00:36:21.207Z,100709.41
2023-04-21T00:38:48.175Z,100711.69
2023-04-21T00:41:15.168Z,100705.34
2023-04-21T00:44:05.465Z,100701.44
2023-04-21T00:46:34.216Z,100708.66
2023-04-21T00:49:06.282Z,100706.06
2023-04-21T00:51:35.386Z,100709.06
2023-04-21T00:54:07.677Z,100702.63
2023-04-21T00:56:36.709Z,100706.28
2023-04-21T00:59:04.310Z,100704.75
2023-04-21T01:01:36.579Z,100702.50
2023-04-21T01:04:05.358Z,100696.97
2023-04-21T01:06:36.715Z,100698.97
2023-04-21T01:09:06.769Z,100696.94
2023-04-21T01:11:34.467Z,100700.25
2023-04-21T01:14:01.505Z,100698.09
2023-04-21T01:16:29.677Z,100695.41
2023-04-21T01:18:57.193Z,100696.59
2023-04-21T01:21:24.193Z,100699.03
2023-04-21T01:23:51.557Z,100695.00
2023-04-21T01:26:21.691Z,100692.88
2023-04-21T01:28:49.093Z,100705.75
2023-04-21T01:31:17.663Z,100698.72
2023-04-21T01:33:45.679Z,100696.41
2023-04-21T01:36:12.935Z,100701.81
2023-04-21T01:38:43.148Z,100691.22
2023-04-21T01:41:10.876Z,100701.13
2023-04-21T01:43:38.603Z,100687.47
2023-04-21T01:46:07.269Z,100696.91
2023-04-21T01:48:34.453Z,100703.91
2023-04-21T01:51:01.438Z,100704.91
2023-04-21T01:53:28.492Z,100699.47
2023-04-21T01:55:56.536Z,100699.34
2023-04-21T01:58:23.540Z,100703.94
2023-04-21T02:00:50.563Z,100700.69
2023-04-21T02:03:17.726Z,100696.19
2023-04-21T02:05:44.916Z,100701.28
2023-04-21T02:08:11.950Z,100694.53
2023-04-21T02:10:38.993Z,100696.38
2023-04-21T02:13:06.053Z,100693.38
2023-04-21T02:15:33.683Z,100707.72
2023-04-21T02:18:00.779Z,100698.09
2023-04-21T02:20:27.978Z,100693.31
2023-04-21T02:22:54.949Z,100684.56
2023-04-21T02:25:21.949Z,100696.78
2023-04-21T02:27:48.937Z,100701.31
2023-04-21T02:30:16.450Z,100688.44
2023-04-21T02:32:43.713Z,100695.09
2023-04-21T02:35:10.989Z,100699.72
2023-04-21T02:37:38.061Z,100699.13
2023-04-21T02:40:06.669Z,100699.47
2023-04-21T02:42:34.944Z,100701.91
2023-04-21T02:45:02.107Z,100695.84
2023-04-21T02:47:29.212Z,100690.53
2023-04-21T02:49:56.248Z,100692.13
2023-04-21T02:52:23.278Z,100694.78
2023-04-21T02:54:50.504Z,100682.09
2023-04-21T02:57:17.498Z,100690.97
2023-04-21T02:59:44.532Z,100691.47
2023-04-21T03:02:11.634Z,100689.13
2023-04-21T03:04:39.428Z,100687.53
2023-04-21T03:07:11.369Z,100680.19
2023-04-21T03:09:38.380Z,100687.38
2023-04-21T03:12:05.517Z,100693.31
2023-04-21T03:14:32.530Z,100677.34
2023-04-21T03:16:59.615Z,100684.69
2023-04-21T03:19:26.682Z,100676.31
2023-04-21T03:21:53.637Z,100682.84
2023-04-21T03:24:21.496Z,100687.88
2023-04-21T03:26:48.477Z,100680.25
2023-04-21T03:29:15.586Z,100678.91
2023-04-21T03:31:42.744Z,100686.84
2023-04-21T03:34:09.763Z,100687.72
2023-04-21T03:36:36.759Z,100692.94
2023-04-21T03:39:18.824Z,100687.25
2023-04-21T03:41:47.140Z,100690.94
2023-04-21T03:44:14.126Z,100690.63
2023-04-21T03:46:41.111Z,100695.84
2023-04-21T03:49:08.140Z,100699.19
2023-04-21T03:51:35.070Z,100701.31
2023-04-21T03:54:02.074Z,100698.00
2023-04-21T03:56:29.064Z,100698.06
2023-04-21T03:58:56.146Z,100698.50
2023-04-21T04:01:23.186Z,100705.78
2023-04-21T04:03:50.960Z,100698.88
2023-04-21T04:06:18.277Z,100699.78
2023-04-21T04:08:45.278Z,100694.41
2023-04-21T04:11:12.250Z,100698.28
2023-04-21T04:13:39.354Z,100699.97
2023-04-21T04:16:07.073Z,100705.69
2023-04-21T04:18:34.107Z,100699.25
2023-04-21T04:21:07.547Z,100703.34
2023-04-21T04:23:35.504Z,100703.81
2023-04-21T04:26:05.615Z,100705.03
2023-04-21T04:28:33.702Z,100712.28
2023-04-21T04:31:01.111Z,100701.00
2023-04-21T04:33:28.081Z,100709.56
2023-04-21T04:35:55.098Z,100708.19
2023-04-21T04:38:23.139Z,100707.78
2023-04-21T04:40:58.897Z,100711.84
2023-04-21T04:43:25.857Z,100712.53
2023-04-21T04:45:53.398Z,100713.63
2023-04-21T04:48:20.476Z,100721.66
2023-04-21T04:50:47.612Z,100717.72
2023-04-21T04:53:14.696Z,100721.78
2023-04-21T04:55:41.682Z,100710.41
2023-04-21T04:58:08.677Z,100713.72
2023-04-21T05:00:37.099Z,100723.50
2023-04-21T05:03:04.434Z,100710.97
2023-04-21T05:05:31.645Z,100706.09
2023-04-21T05:07:58.703Z,100714.53
2023-04-21T05:10:25.814Z,100712.91
2023-04-21T05:12:52.831Z,100711.72
2023-04-21T05:15:19.900Z,100713.50
2023-04-21T05:17:46.899Z,100720.53
2023-04-21T05:20:15.021Z,100706.53
2023-04-21T05:22:42.148Z,100700.75
2023-04-21T05:25:15.877Z,100708.13
2023-04-21T05:27:43.625Z,100717.78
2023-04-21T05:30:11.317Z,100722.59
2023-04-21T05:32:39.295Z,100708.47
2023-04-21T05:35:07.001Z,100706.47
2023-04-21T05:37:34.044Z,100711.81
2023-04-21T05:40:01.113Z,100718.34
2023-04-21T05:42:28.282Z,100713.41
2023-04-21T05:44:55.345Z,100715.91
2023-04-21T05:47:22.456Z,100716.97
2023-04-21T05:49:53.779Z,100718.44
2023-04-21T05:52:23.860Z,100717.88
2023-04-21T05:54:50.966Z,100714.50
2023-04-21T05:57:18.026Z,100708.50
2023-04-21T05:59:45.140Z,100709.72
2023-04-21T06:02:12.563Z,100694.69
2023-04-21T06:04:39.933Z,100701.03
2023-04-21T06:07:09.146Z,100705.66
2023-04-21T06:09:36.839Z,100700.88
2023-04-21T06:12:04.384Z,100716.38
2023-04-21T06:14:31.511Z,100709.16
2023-04-21T06:16:58.978Z,100704.66
2023-04-21T06:19:26.083Z,100699.88
2023-04-21T06:21:53.143Z,100711.81
2023-04-21T06:24:25.228Z,100699.16
2023-04-21T06:26:53.485Z,100693.22
2023-04-21T06:29:21.078Z,100692.69
2023-04-21T06:31:48.379Z,100701.94
2023-04-21T06:34:15.972Z,100690.00
2023-04-21T06:36:43.005Z,100703.75
2023-04-21T06:39:09.991Z,100694.03
2023-04-21T06:41:37.119Z,100690.22
2023-04-21T06:44:04.179Z,100693.97
2023-04-21T06:46:31.415Z,100694.97
2023-04-21T06:48:58.671Z,100698.88
2023-04-21T06:51:25.679Z,100695.00
2023-04-21T06:53:52.679Z,100685.88
2023-04-21T06:56:19.642Z,100690.53
2023-04-21T06:58:47.102Z,100688.28
2023-04-21T07:01:14.135Z,100681.13
2023-04-21T07:03:41.450Z,100688.84
2023-04-21T07:06:08.796Z,100692.28
2023-04-21T07:08:35.919Z,100692.47
2023-04-21T07:11:03.122Z,100688.53
2023-04-21T07:13:30.433Z,100692.19
2023-04-21T07:15:57.558Z,100683.72
2023-04-21T07:18:24.570Z,100691.56
2023-04-21T07:20:51.652Z,100683.09
2023-04-21T07:23:18.982Z,100691.44
2023-04-21T07:25:46.024Z,100692.94
2023-04-21T07:28:15.176Z,100682.38
2023-04-21T07:30:42.321Z,100681.06
2023-04-21T07:33:09.567Z,100680.34
2023-04-21T07:35:36.635Z,100678.44
2023-04-21T07:38:03.836Z,100688.34
2023-04-21T07:40:31.264Z,100684.28
2023-04-21T07:42:58.255Z,100682.22
2023-04-21T07:45:26.471Z,100675.84
2023-04-21T07:47:53.592Z,100681.31
2023-04-21T07:50:20.623Z,100676.75
2023-04-21T07:52:48.210Z,100667.69
2023-04-21T07:55:15.683Z,100673.66
2023-04-21T07:57:42.762Z,100664.41
2023-04-21T08:00:10.899Z,100664.38
2023-04-21T08:02:38.015Z,100669.72
2023-04-21T08:05:05.749Z,100663.78
2023-04-21T08:07:32.898Z,100662.88
2023-04-21T08:10:00.321Z,100664.59
2023-04-21T08:12:27.543Z,100663.47
2023-04-21T08:14:57.317Z,100659.13
2023-04-21T08:17:24.434Z,100661.06
2023-04-21T08:19:52.158Z,100646.47
2023-04-21T08:22:19.195Z,100647.97
2023-04-21T08:24:46.214Z,100648.25
2023-04-21T08:27:13.325Z,100658.59
2023-04-21T08:29:40.365Z,100652.19
2023-04-21T08:32:07.652Z,100645.09
2023-04-21T08:34:35.075Z,100657.47
2023-04-21T08:37:02.170Z,100649.59
2023-04-21T08:39:30.568Z,100654.94
2023-04-21T08:41:59.172Z,100661.19
2023-04-21T08:44:26.704Z,100654.56
2023-04-21T08:46:55.980Z,100644.88
2023-04-21T08:49:24.368Z,100648.63
2023-04-21T08:51:51.423Z,100658.69
2023-04-21T08:54:18.506Z,100654.25
2023-04-21T08:56:45.564Z,100644.22
2023-04-21T08:59:12.537Z,100634.84
2023-04-21T09:02:12.105Z,100639.78
2023-04-21T09:04:45.141Z,100652.94
2023-04-21T09:07:29.770Z,100644.88
2023-04-21T09:09:58.231Z,100648.50
2023-04-21T09:12:25.312Z,100630.88
2023-04-21T09:14:52.358Z,100629.31
2023-04-21T09:17:27.440Z,100637.22
2023-04-21T09:19:54.473Z,100644.28
2023-04-21T09:22:26.645Z,100642.25
2023-04-21T09:25:02.702Z,100634.22
2023-04-21T09:27:29.797Z,100618.75
2023-04-21T09:30:04.598Z,100620.63
2023-04-21T09:32:38.129Z,100632.22
2023-04-21T09:35:09.764Z,100623.38
2023-04-21T09:37:38.143Z,100621.09
2023-04-21T09:40:06.608Z,100632.53
2023-04-21T09:42:37.845Z,100623.09
2023-04-21T09:45:28.857Z,100632.06
2023-04-21T09:48:00.793Z,100628.03
2023-04-21T09:53:04.066Z,100612.19
2023-04-21T09:55:33.432Z,100615.31
2023-04-21T09:58:02.019Z,100617.59
2023-04-21T10:00:31.123Z,100602.94
2023-04-21T10:03:00.910Z,100605.03
2023-04-21T10:05:29.439Z,100603.22
2023-04-21T10:07:57.954Z,100611.78
2023-04-21T10:10:34.819Z,100615.00
2023-04-21T10:13:02.793Z,100605.53
2023-04-21T10:15:41.527Z,100608.13
2023-04-21T10:18:29.320Z,100596.13
2023-04-21T10:21:04.975Z,100582.03
2023-04-21T10:23:42.035Z,100569.53
2023-04-21T10:26:32.576Z,100571.94
2023-04-21T10:29:06.047Z,100578.41
2023-04-21T10:31:36.619Z,100566.00
2023-04-21T10:34:09.245Z,100577.94
2023-04-21T10:36:44.117Z,100573.31
2023-04-21T10:39:16.459Z,100579.34
2023-04-21T10:41:46.340Z,100575.97
2023-04-21T10:44:16.056Z,100584.81
2023-04-21T10:46:52.232Z,100574.97
2023-04-21T10:49:30.139Z,100558.31
2023-04-21T10:52:00.302Z,100562.25
2023-04-21T10:54:52.573Z,100560.06
2023-04-21T10:57:20.708Z,100549.25
2023-04-21T10:59:49.644Z,100555.16
2023-04-21T11:02:19.342Z,100553.25
2023-04-21T11:04:52.664Z,100538.06
2023-04-21T11:07:24.594Z,100540.97
2023-04-21T11:10:07.401Z,100541.88
2023-04-21T11:12:41.450Z,100542.88
2023-04-21T11:15:11.348Z,100545.72
2023-04-21T11:17:39.920Z,100542.44
2023-04-21T11:20:08.528Z,100527.59
2023-04-21T11:22:37.805Z,100509.75
2023-04-21T11:25:05.601Z,100525.72
2023-04-21T11:27:32.700Z,100533.47
2023-04-21T11:30:03.480Z,100516.81
2023-04-21T11:32:31.320Z,100528.47
2023-04-21T11:34:58.445Z,100515.34
2023-04-21T11:37:27.932Z,100508.31
2023-04-21T11:40:00.416Z,100510.88
2023-04-21T11:42:28.565Z,100513.56
2023-04-21T11:44:56.735Z,100507.63
2023-04-21T11:47:27.174Z,100497.75
2023-04-21T11:50:01.017Z,100502.09
2023-04-21T11:52:33.194Z,100491.34
2023-04-21T11:55:06.234Z,100508.22
2023-04-21T11:57:34.259Z,100482.56
2023-04-21T12:00:07.904Z,100503.25
2023-04-21T12:02:35.148Z,100498.81
2023-04-21T12:05:13.455Z,100494.28
2023-04-21T12:07:52.026Z,100482.56
2023-04-21T12:10:21.214Z,100476.25
2023-04-21T12:12:49.084Z,100478.81
2023-04-21T12:15:23.094Z,100482.53
2023-04-21T12:17:55.450Z,100469.31
2023-04-21T12:20:26.498Z,100460.16
2023-04-21T12:22:53.572Z,100470.03
2023-04-21T12:25:20.716Z,100469.28
2023-04-21T12:27:58.452Z,100470.16
2023-04-21T12:30:25.620Z,100459.53
2023-04-21T12:32:54.456Z,100462.13
2023-04-21T12:35:22.782Z,100455.91
2023-04-21T12:37:49.770Z,100441.50
2023-04-21T12:40:17.051Z,100454.94
2023-04-21T12:42:43.980Z,100442.28
2023-04-21T12:45:11.632Z,100450.44
2023-04-21T12:47:39.400Z,100452.34
2023-04-21T12:50:07.593Z,100445.09
2023-04-21T12:52:34.815Z,100436.00
2023-04-21T12:55:01.904Z,100432.25
2023-04-21T12:57:29.272Z,100447.50
2023-04-21T12:59:56.246Z,100446.72
2023-04-21T13:02:23.429Z,100439.84
2023-04-21T13:04:50.703Z,100433.56
2023-04-21T13:07:21.394Z,100430.88
2023-04-21T13:09:48.538Z,100433.41
2023-04-21T13:12:15.659Z,100426.16
2023-04-21T13:14:42.850Z,100418.16
2023-04-21T13:17:10.192Z,100417.94
2023-04-21T13:19:37.405Z,100413.34
2023-04-21T13:22:04.517Z,100415.94
2023-04-21T13:24:31.658Z,100417.94
2023-04-21T13:26:59.543Z,100409.81
2023-04-21T13:29:30.378Z,100402.88
2023-04-21T13:31:57.509Z,100407.41
2023-04-21T13:34:24.747Z,100401.88
2023-04-21T13:36:51.911Z,100398.28
2023-04-21T13:39:19.013Z,100396.53
2023-04-21T13:41:46.112Z,100387.59
2023-04-21T13:44:13.172Z,100389.53
2023-04-21T13:46:40.378Z,100382.41
2023-04-21T13:49:07.679Z,100382.28
2023-04-21T13:51:35.576Z,100378.84
2023-04-21T13:54:02.784Z,100372.66
2023-04-21T13:56:29.891Z,100376.91
2023-04-21T13:58:57.126Z,100377.16
2023-04-21T14:01:24.324Z,100370.06
2023-04-21T14:03:51.837Z,100359.31
2023-04-21T14:06:19.453Z,100350.53
2023-04-21T14:08:46.591Z,100362.81
2023-04-21T14:11:13.766Z,100352.81
2023-04-21T14:13:48.055Z,100363.44
2023-04-21T14:16:26.898Z,100359.13
2023-04-21T14:18:53.990Z,100353.63
2023-04-21T14:21:21.055Z,100351.81
2023-04-21T14:23:48.277Z,100354.81
2023-04-21T14:26:15.393Z,100352.91
2023-04-21T14:28:42.606Z,100346.75
2023-04-21T14:31:09.693Z,100343.09
2023-04-21T14:33:36.926Z,100342.25
2023-04-21T14:36:04.136Z,100338.47
2023-04-21T14:38:31.220Z,100333.03
2023-04-21T14:40:58.214Z,100334.81
2023-04-21T14:43:25.295Z,100330.31
2023-04-21T14:45:53.155Z,100330.53
2023-04-21T14:48:21.353Z,100326.09
2023-04-21T14:50:48.514Z,100324.22
2023-04-21T14:53:15.704Z,100321.59
2023-04-21T14:55:42.707Z,100322.56
2023-04-21T14:58:09.738Z,100317.09
2023-04-21T15:00:36.763Z,100317.81
2023-04-21T15:03:04.029Z,100311.50
2023-04-21T15:05:31.236Z,100298.13
2023-04-21T15:07:58.229Z,100308.56
2023-04-21T15:10:25.350Z,100309.41
2023-04-21T15:12:52.494Z,100301.34
2023-04-21T15:15:19.746Z,100310.66
2023-04-21T15:17:46.789Z,100308.16
2023-04-21T15:20:13.874Z,100298.25
2023-04-21T15:22:41.507Z,100296.69
2023-04-21T15:25:09.166Z,100288.69
2023-04-21T15:27:36.955Z,100300.25
2023-04-21T15:30:05.132Z,100294.25
2023-04-21T15:32:32.239Z,100302.34
2023-04-21T15:34:59.278Z,100282.69
2023-04-21T15:37:26.332Z,100300.59
2023-04-21T15:39:53.463Z,100285.53
2023-04-21T15:42:20.722Z,100300.63
2023-04-21T15:44:47.841Z,100283.69
2023-04-21T15:47:17.034Z,100296.25
2023-04-21T15:49:44.178Z,100290.88
2023-04-21T15:52:11.328Z,100288.19
2023-04-21T15:54:38.838Z,100289.13
2023-04-21T15:57:06.366Z,100293.59
2023-04-21T15:59:33.375Z,100290.91
2023-04-21T16:02:00.565Z,100276.69
2023-04-21T16:04:28.383Z,100275.88
2023-04-21T16:06:56.208Z,100283.94
2023-04-21T16:09:23.748Z,100282.97
2023-04-21T16:11:51.441Z,100281.22
2023-04-21T16:14:18.980Z,100272.28
2023-04-21T16:16:46.198Z,100267.03
2023-04-21T16:19:13.418Z,100277.72
2023-04-21T16:21:40.843Z,100274.16
2023-04-21T16:24:08.826Z,100279.47
2023-04-21T16:26:36.734Z,100275.03
2023-04-21T16:29:03.982Z,100282.19
2023-04-21T16:31:31.556Z,100282.19
2023-04-21T16:34:00.345Z,100280.41
2023-04-21T16:36:28.474Z,100269.72
2023-04-21T16:38:56.256Z,100275.97
2023-04-21T16:41:23.653Z,100270.63
2023-04-21T16:43:50.860Z,100276.88
2023-04-21T16:46:18.412Z,100286.66
2023-04-21T16:48:46.034Z,100278.66
2023-04-21T16:51:13.164Z,100276.84
2023-04-21T16:53:42.096Z,100269.75
2023-04-21T16:56:09.772Z,100267.06
2023-04-21T16:58:37.744Z,100272.41
2023-04-21T17:01:07.521Z,100279.53
2023-04-21T17:03:35.007Z,100275.09
2023-04-21T17:06:04.647Z,100278.66
2023-04-21T17:08:31.723Z,100276.84
2023-04-21T17:11:00.009Z,100288.41
2023-04-21T17:13:27.074Z,100278.56
2023-04-21T17:15:54.227Z,100281.22
2023-04-21T17:18:21.414Z,100279.41
2023-04-21T17:20:48.545Z,100266.09
2023-04-21T17:23:15.589Z,100279.47
2023-04-21T17:25:42.739Z,100272.28
2023-04-21T17:28:09.836Z,100274.94
2023-04-21T17:30:36.970Z,100281.19
2023-04-21T17:33:15.249Z,100279.38
2023-04-21T17:35:59.920Z,100278.47
2023-04-21T17:38:29.295Z,100279.31
2023-04-21T17:40:56.422Z,100273.03
2023-04-21T17:43:23.529Z,100273.06
2023-04-21T17:45:51.637Z,100276.59
2023-04-21T17:48:19.137Z,100284.56
2023-04-21T17:50:46.220Z,100284.59
2023-04-21T17:53:13.205Z,100279.22
2023-04-21T17:55:40.396Z,100288.03
2023-04-21T17:58:10.037Z,100292.47
2023-04-21T18:00:38.711Z,100286.28
2023-04-21T18:03:05.982Z,100294.13
2023-04-21T18:05:33.781Z,100287.16
2023-04-21T18:08:00.937Z,100281.63
2023-04-21T18:10:29.807Z,100290.47
2023-04-21T18:12:57.837Z,100292.25
2023-04-21T18:15:25.148Z,100294.88
2023-04-21T18:17:53.300Z,100285.97
2023-04-21T18:20:20.761Z,100281.47
2023-04-21T18:22:49.092Z,100282.31
2023-04-21T18:25:20.156Z,100288.53
2023-04-21T18:27:51.513Z,100285.88
2023-04-21T18:30:18.564Z,100282.22
2023-04-21T18:32:45.717Z,100287.50
2023-04-21T18:35:12.776Z,100288.38
2023-04-21T18:37:39.765Z,100269.63
2023-04-21T18:40:07.759Z,100287.34
2023-04-21T18:42:34.833Z,100285.56
2023-04-21T18:45:04.257Z,100289.16
2023-04-21T18:47:31.928Z,100287.34
2023-04-21T18:49:59.014Z,100287.25
2023-04-21T18:52:26.077Z,100289.91
2023-04-21T18:54:53.082Z,100287.25
2023-04-21T18:57:20.091Z,100288.13
2023-04-21T18:59:47.156Z,100282.72
2023-04-21T19:02:14.422Z,100285.31
2023-04-21T19:04:43.850Z,100282.59
2023-04-21T19:07:11.528Z,100284.16
2023-04-21T19:09:38.721Z,100284.25
2023-04-21T19:12:05.892Z,100284.22
2023-04-21T19:14:42.452Z,100281.44
2023-04-21T19:17:13.141Z,100278.78
2023-04-21T19:19:40.857Z,100278.69
2023-04-21T19:22:07.989Z,100283.06
2023-04-21T19:24:35.457Z,100281.09
2023-04-21T19:27:03.782Z,100281.16
2023-04-21T19:29:31.804Z,100279.19
2023-04-21T19:31:59.432Z,100278.22
2023-04-21T19:34:26.918Z,100280.94
2023-04-21T19:36:53.993Z,100273.66
2023-04-21T19:39:21.040Z,100278.88
2023-04-21T19:41:48.065Z,100278.84
2023-04-21T19:44:15.047Z,100276.25
2023-04-21T19:46:43.129Z,100276.34
2023-04-21T19:49:14.140Z,100283.25
2023-04-21T19:51:41.473Z,100282.94
2023-04-21T19:54:12.157Z,100293.31
2023-04-21T19:56:40.577Z,100294.00
2023-04-21T19:59:07.884Z,100292.16
2023-04-21T20:01:35.100Z,100293.00
2023-04-21T20:04:03.750Z,100292.91
2023-04-21T20:06:32.094Z,100295.53
2023-04-21T20:08:59.124Z,100294.72
2023-04-21T20:11:28.953Z,100298.53
2023-04-21T20:13:56.329Z,100287.84
2023-04-21T20:16:24.074Z,100287.25
2023-04-21T20:18:51.129Z,100289.97
2023-04-21T20:21:18.246Z,100291.59
2023-04-21T20:23:45.300Z,100292.28
2023-04-21T20:26:13.280Z,100292.28
2023-04-21T20:28:40.307Z,100290.44
2023-04-21T20:31:07.580Z,100289.03
2023-04-21T20:33:35.030Z,100283.56
2023-04-21T20:36:07.193Z,100292.44
2023-04-21T20:38:35.433Z,100293.19
2023-04-21T20:41:03.355Z,100289.63
2023-04-21T20:43:33.341Z,100297.47
2023-04-21T20:46:04.316Z,100294.81
2023-04-21T20:48:31.468Z,100302.69
2023-04-21T20:50:58.504Z,100290.34
2023-04-21T20:53:26.181Z,100297.91
2023-04-21T20:55:53.265Z,100297.91
2023-04-21T20:58:20.390Z,100304.09
2023-04-21T21:00:47.453Z,100295.06
2023-04-21T21:03:14.940Z,100300.38
2023-04-21T21:05:42.223Z,100305.13
2023-04-21T21:08:09.449Z,100302.81
2023-04-21T21:10:36.532Z,100293.91
2023-04-21T21:13:03.672Z,100305.25
2023-04-21T21:15:30.955Z,100291.94
2023-04-21T21:17:58.439Z,100290.31
2023-04-21T21:20:25.832Z,100297.38
2023-04-21T21:22:52.888Z,100286.44
2023-04-21T21:25:20.031Z,100294.03
2023-04-21T21:27:47.300Z,100291.47
2023-04-21T21:30:14.645Z,100291.56
2023-04-21T21:32:41.947Z,100292.53
2023-04-21T21:35:10.653Z,100291.66
2023-04-21T21:37:38.297Z,100290.91
2023-04-21T21:40:06.965Z,100291.84
2023-04-21T21:42:34.151Z,100286.38
2023-04-21T21:45:01.320Z,100287.09
2023-04-21T21:47:28.698Z,100286.84
2023-04-21T21:49:57.848Z,100290.50
2023-04-21T21:52:25.312Z,100292.97
2023-04-21T21:54:52.709Z,100289.72
2023-04-21T21:57:19.709Z,100287.16
2023-04-21T21:59:47.127Z,100290.00
2023-04-21T22:02:14.991Z,100290.91
2023-04-21T22:04:42.994Z,100286.38
2023-04-21T22:07:10.066Z,100290.47
2023-04-21T22:09:38.545Z,100285.09
2023-04-21T22:12:07.325Z,100287.56
2023-04-21T22:14:34.633Z,100285.59
2023-04-21T22:17:02.956Z,100290.13
2023-04-21T22:19:31.156Z,100290.31
2023-04-21T22:21:58.419Z,100272.13
2023-04-21T22:24:25.830Z,100276.88
2023-04-21T22:26:53.285Z,100281.66
2023-04-21T22:29:20.293Z,100285.53
2023-04-21T22:31:48.131Z,100278.88
2023-04-21T22:34:16.785Z,100287.47
2023-04-21T22:36:44.116Z,100288.63
2023-04-21T22:39:12.773Z,100294.09
2023-04-21T22:41:39.828Z,100293.16
2023-04-21T22:44:06.826Z,100287.72
2023-04-21T22:46:33.982Z,100271.47
2023-04-21T22:49:03.183Z,100278.56
2023-04-21T22:51:32.456Z,100276.44
2023-04-21T22:54:00.429Z,100292.59
2023-04-21T22:56:28.572Z,100285.53
2023-04-21T22:58:55.631Z,100288.09
2023-04-21T23:01:23.225Z,100286.31
2023-04-21T23:03:50.774Z,100283.50
2023-04-21T23:06:17.862Z,100289.03
2023-04-21T23:08:44.922Z,100284.59
2023-04-21T23:11:12.115Z,100275.44
2023-04-21T23:13:39.986Z,100283.47
2023-04-21T23:16:07.200Z,100277.38
2023-04-21T23:18:34.235Z,100275.97
2023-04-21T23:21:01.492Z,100277.28
2023-04-21T23:23:28.529Z,100269.84
2023-04-21T23:25:55.672Z,100279.13
2023-04-21T23:28:23.888Z,100266.56
2023-04-21T23:30:50.904Z,100269.25
2023-04-21T23:33:17.990Z,100282.09
2023-04-21T23:35:45.137Z,100279.22
2023-04-21T23:38:12.191Z,100289.94
2023-04-21T23:40:39.252Z,100280.78
2023-04-21T23:43:07.090Z,100280.56
2023-04-21T23:45:34.191Z,100279.03
2023-04-21T23:48:01.446Z,100277.50
2023-04-21T23:50:28.772Z,100281.72
2023-04-21T23:52:56.052Z,100286.31
2023-04-21T23:55:23.160Z,100282.06
2023-04-21T23:57:50.178Z,100273.69
